Saturday, May 26, 2018, 2:28 AM EDT
Back to Local

KWRI, Mcguire Air Force Base

Location: Trenton, NJ, United States Lat: 40.017
Local Time: 2:28 AM EDT ( 6:28 GMT) Lon: -74.6
Time Zone: US/Eastern Elev: 134 ft

Show me the last for .
Show Decoded

2018-05-26 01:56 METAR KWRI 260556Z AUTO 23006KT 10SM CLR 21/17 A2985 RMK AO2 SLP107 T02090167
                 10261 20208 55006 =
2018-05-26 00:56 METAR KWRI 260456Z AUTO 23008KT 10SM CLR 21/17 A2986 RMK AO2 SLP110 T02130165
                 402980132 =
2018-05-25 23:56 METAR KWRI 260356Z AUTO 22008KT 10SM CLR 22/17 A2986 RMK AO2 SLP110 T02200167 =
2018-05-25 22:56 METAR KWRI 260256Z AUTO 23009KT 10SM CLR 23/17 A2986 RMK AO2 SLP110 T02270171
                 50004 =
2018-05-25 21:56 METAR KWRI 260156Z AUTO 23008KT 10SM CLR 23/17 A2987 RMK AO2 SLP114 T02340174 =
2018-05-25 20:56 METAR KWRI 260056Z AUTO 22007KT 10SM CLR 24/16 A2986 RMK AO2 SLP110 T02360159 =
2018-05-25 19:56 METAR KWRI 252356Z AUTO 23010KT 10SM CLR 26/16 A2985 RMK AO2 SLP107 T02620155
                 10298 20262 55005 =
2018-05-25 18:56 METAR KWRI 252256Z AUTO 23012KT 10SM CLR 28/16 A2985 RMK AO2 SLP107 T02790158 =
2018-05-25 17:56 METAR KWRI 252156Z AUTO 26012G20KT 10SM CLR 29/15 A2985 RMK AO2 SLP107 T02920153
                 =
2018-05-25 16:56 METAR KWRI 252056Z AUTO 26014G20KT 10SM CLR 30/15 A2987 RMK AO2 SLP114 T02960153
                 57020 =
2018-05-25 15:56 METAR KWRI 251956Z AUTO 25015G20KT 10SM CLR 30/15 A2989 RMK AO2 SLP121 T02970146
                 =
2018-05-25 15:03 METAR KWRI 251903Z AUTO 28012G17KT 10SM CLR 30/15 A2990 RMK AO2 WSHFT 1855
                 SLP124 =
2018-05-25 14:56 METAR KWRI 251856Z AUTO 23017KT 10SM CLR 30/15 A2991 RMK AO2 SLP127 T02960153 =
2018-05-25 14:52 METAR KWRI 251852Z AUTO 24017KT 10SM CLR 30/16 A2991 RMK AO2 WSHFT 43 SLP127 =
2018-05-25 14:43 METAR KWRI 251843Z AUTO 28013G22KT 10SM CLR 30/16 A2991 RMK AO2 WSHFT 34 SLP127
                 =
2018-05-25 13:56 METAR KWRI 251756Z AUTO 25012G21KT 10SM CLR 29/14 A2993 RMK AO2 SLP134 T02920142
                 10292 20191 57026 =
2018-05-25 12:56 METAR KWRI 251656Z AUTO 26010KT 10SM FEW190 29/13 A2995 RMK AO2 SLP141 T02870134
                 =
2018-05-25 11:56 METAR KWRI 251556Z AUTO 24014G19KT 10SM CLR 28/14 A2998 RMK AO2 SLP151 T02810143
                 =
2018-05-25 10:56 METAR KWRI 251456Z AUTO 25012KT 10SM CLR 27/16 A3001 RMK AO2 SLP161 T02680155
                 57017 =
2018-05-25 09:56 METAR KWRI 251356Z AUTO 25009KT 10SM CLR 25/16 A3003 RMK AO2 SLP168 T02520161 =
2018-05-25 08:56 METAR KWRI 251256Z AUTO 25006KT 10SM CLR 22/16 A3005 RMK AO2 SLP175 T02220160 =
2018-05-25 07:56 METAR KWRI 251156Z AUTO 23006KT 10SM CLR 19/16 A3005 RMK AO2 SLP175 T01900157
                 10190 20132 50002 =
2018-05-25 06:56 METAR KWRI 251056Z AUTO 24005KT 10SM CLR 16/14 A3007 RMK AO2 SLP182 T01580138 =
2018-05-25 05:56 METAR KWRI 250956Z AUTO 21003KT 10SM CLR 13/12 A3006 RMK AO2 SLP178 T01340124 =
2018-05-25 04:56 METAR KWRI 250856Z AUTO 24004KT 10SM CLR 14/13 A3005 RMK AO2 SLP175 T01430128
                 57011 =
2018-05-25 03:56 METAR KWRI 250756Z AUTO 21003KT 10SM CLR 14/12 A3006 RMK AO2 SLP178 T01350121 =
2018-05-25 02:56 METAR KWRI 250656Z AUTO 00000KT 10SM CLR 14/11 A3007 RMK AO2 SLP182 T01370110 =

Support USWX by starting your Amazon purchase here.